Time;durP1;ratioP1;P1;durP2;ratioP2;P2;SDS_P1;SDS_P2;PMS_P1;PMS_P2;Temp;Humidity;BMP_temperature;BMP_pressure;BME280_temperature;BME280_humidity;BME280_pressure;Samples;Min_cycle;Max_cycle;Signal;HPM_P1;HPM_P2
2023/06/06 00:01:49;;;;;;;3.20;2.03;;;;;;;16.08;63.39;98589.53;4123131;28;20206;-45
2023/06/06 00:03:51;;;;;;;2.17;1.92;;;;;;;16.01;63.86;98583.50;4106245;28;20234;-45
2023/06/06 00:05:53;;;;;;;1.90;1.80;;;;;;;15.95;63.73;98584.63;4110890;28;20243;-45
2023/06/06 00:07:56;;;;;;;2.65;2.20;;;;;;;15.97;63.89;98579.66;4097160;28;20219;-45
2023/06/06 00:09:58;;;;;;;1.92;1.73;;;;;;;16.04;64.20;98580.16;4110636;28;20218;-45
2023/06/06 00:12:00;;;;;;;2.35;2.10;;;;;;;15.95;64.71;98579.13;4108926;28;20309;-45
2023/06/06 00:14:01;;;;;;;2.72;1.92;;;;;;;15.93;64.72;98574.97;4106836;28;20227;-45
2023/06/06 00:16:04;;;;;;;1.60;1.50;;;;;;;15.92;65.28;98582.47;4108800;28;20825;-45
2023/06/06 00:18:06;;;;;;;3.30;2.25;;;;;;;15.81;66.04;98582.75;4122551;28;20214;-45
2023/06/06 00:20:09;;;;;;;2.35;1.80;;;;;;;15.74;66.18;98577.56;4110202;28;20206;-45
2023/06/06 00:22:11;;;;;;;2.05;1.85;;;;;;;15.66;66.16;98569.88;4107829;28;20756;-45
2023/06/06 00:24:13;;;;;;;2.35;1.98;;;;;;;15.64;66.36;98577.56;4107981;28;20242;-45
2023/06/06 00:26:15;;;;;;;3.63;2.08;;;;;;;15.72;66.30;98570.66;4120567;28;20553;-45
2023/06/06 00:28:17;;;;;;;2.28;2.00;;;;;;;15.76;66.37;98575.31;4107886;28;20592;-45
2023/06/06 00:30:18;;;;;;;3.08;1.60;;;;;;;15.77;66.33;98571.47;4109864;28;20246;-45
2023/06/06 00:32:20;;;;;;;2.53;2.00;;;;;;;15.78;66.60;98578.66;4113026;28;20210;-44
2023/06/06 00:34:22;;;;;;;2.03;1.80;;;;;;;15.73;66.61;98573.16;4104440;28;20238;-44
2023/06/06 00:36:23;;;;;;;6.40;1.63;;;;;;;15.70;66.73;98576.44;4111260;28;20765;-44
2023/06/06 00:38:25;;;;;;;2.28;1.75;;;;;;;15.66;66.73;98575.38;4108937;28;20206;-45
2023/06/06 00:40:27;;;;;;;3.50;1.77;;;;;;;15.62;67.09;98578.97;4091510;28;20216;-45
2023/06/06 00:42:28;;;;;;;3.28;2.00;;;;;;;15.55;68.00;98582.03;4108680;28;20215;-45
2023/06/06 00:44:30;;;;;;;2.17;1.70;;;;;;;15.45;67.82;98584.81;4122954;28;20726;-44
2023/06/06 00:46:32;;;;;;;3.33;1.83;;;;;;;15.44;68.17;98576.81;4110925;28;20229;-45
2023/06/06 00:48:33;;;;;;;3.53;1.98;;;;;;;15.43;68.34;98570.47;4094083;28;20299;-46
2023/06/06 00:50:36;;;;;;;2.30;1.50;;;;;;;15.42;68.40;98574.34;4109000;28;20210;-45
2023/06/06 00:52:40;;;;;;;1.85;1.60;;;;;;;15.35;68.76;98584.03;4112714;28;20257;-45
2023/06/06 00:54:42;;;;;;;3.92;1.77;;;;;;;15.23;68.88;98578.75;4095028;28;20263;-44
2023/06/06 00:56:45;;;;;;;2.13;1.60;;;;;;;15.25;68.89;98584.84;4124073;28;20264;-45
2023/06/06 00:58:46;;;;;;;2.10;2.00;;;;;;;15.28;68.83;98584.25;4123880;28;20305;-45
2023/06/06 01:00:48;;;;;;;3.25;2.13;;;;;;;15.27;69.22;98581.78;4109317;28;20258;-45
2023/06/06 01:02:50;;;;;;;2.60;2.10;;;;;;;15.17;69.36;98588.13;4106645;28;20207;-44
2023/06/06 01:04:52;;;;;;;2.67;2.15;;;;;;;15.22;69.63;98588.13;4090234;28;20689;-45
2023/06/06 01:06:55;;;;;;;4.75;2.00;;;;;;;15.22;69.53;98584.56;4109201;28;20242;-46
2023/06/06 01:08:57;;;;;;;2.92;2.40;;;;;;;15.18;69.18;98589.81;4107094;28;20215;-45
2023/06/06 01:11:06;;;;;;;2.38;2.17;;;;;;;15.11;69.44;98585.66;4089719;28;20213;-45
2023/06/06 01:13:18;;;;;;;2.40;1.95;;;;;;;15.13;69.10;98587.06;4113642;28;20234;-45
2023/06/06 01:15:43;;;;;;;4.93;1.70;;;;;;;15.10;68.98;98582.06;4090890;28;20713;-44
2023/06/06 01:17:46;;;;;;;5.55;2.30;;;;;;;15.07;68.98;98579.88;4127166;28;20672;-45
2023/06/06 01:19:49;;;;;;;2.42;1.92;;;;;;;15.10;68.87;98587.59;4109906;28;20570;-45
2023/06/06 01:21:52;;;;;;;2.47;2.15;;;;;;;15.07;68.89;98584.56;4093159;28;20339;-44
2023/06/06 01:23:56;;;;;;;3.17;2.05;;;;;;;15.05;68.91;98584.03;4109872;28;20298;-45
2023/06/06 01:26:04;;;;;;;2.45;2.22;;;;;;;15.03;69.17;98592.56;4110775;28;20203;-46
2023/06/06 01:28:13;;;;;;;3.25;2.45;;;;;;;15.00;69.08;98581.25;4110418;28;20309;-45
2023/06/06 01:30:16;;;;;;;4.65;2.33;;;;;;;14.97;68.95;98588.16;4106193;28;20203;-45
2023/06/06 01:32:31;;;;;;;1.92;1.83;;;;;;;14.96;69.21;98586.50;4090106;28;20211;-45
2023/06/06 01:34:42;;;;;;;2.40;2.20;;;;;;;14.94;69.32;98585.97;4108353;28;20237;-44
2023/06/06 01:36:59;;;;;;;3.15;2.47;;;;;;;14.88;68.94;98589.81;4092820;28;20219;-45
2023/06/06 01:39:11;;;;;;;2.33;2.13;;;;;;;14.84;68.83;98594.22;4103356;28;20203;-45
2023/06/06 01:41:16;;;;;;;4.50;2.05;;;;;;;14.84;68.84;98599.72;4105818;28;20207;-45
2023/06/06 01:43:21;;;;;;;2.50;1.75;;;;;;;14.78;68.63;98595.34;4123938;28;20237;-45
2023/06/06 01:45:27;;;;;;;2.63;2.40;;;;;;;14.76;68.82;98592.00;4107545;28;20203;-45
2023/06/06 01:47:29;;;;;;;2.08;1.88;;;;;;;14.74;69.06;98602.50;4112879;28;20262;-45
2023/06/06 01:49:31;;;;;;;3.75;2.20;;;;;;;14.77;69.40;98599.16;4109832;28;20334;-46
2023/06/06 01:51:33;;;;;;;2.58;2.00;;;;;;;14.69;69.39;98596.97;4110079;28;21229;-46
2023/06/06 01:53:35;;;;;;;2.13;1.75;;;;;;;14.66;69.53;98596.69;4107153;28;20691;-45
2023/06/06 01:55:38;;;;;;;3.72;2.28;;;;;;;14.68;69.84;98606.34;4108393;28;20219;-45
2023/06/06 01:57:39;;;;;;;2.00;1.80;;;;;;;14.64;70.11;98594.19;4107733;28;20717;-47
2023/06/06 01:59:41;;;;;;;4.40;2.08;;;;;;;14.62;70.56;98596.41;4108585;28;20640;-45
2023/06/06 02:01:43;;;;;;;3.35;1.50;;;;;;;14.65;70.78;98595.88;4108498;28;20230;-44
2023/06/06 02:03:45;;;;;;;3.20;2.80;;;;;;;14.58;70.93;98603.56;4110130;28;20227;-45
2023/06/06 02:05:47;;;;;;;1.60;1.50;;;;;;;14.56;71.01;98603.00;4107811;28;20245;-45
2023/06/06 02:07:52;;;;;;;2.33;2.13;;;;;;;14.56;71.27;98607.72;4111211;28;20565;-45
2023/06/06 02:09:54;;;;;;;2.88;2.05;;;;;;;14.54;71.30;98613.47;4109686;28;20501;-45
2023/06/06 02:11:56;;;;;;;2.97;1.88;;;;;;;14.53;71.32;98609.09;4108436;28;20827;-45
2023/06/06 02:13:59;;;;;;;1.65;1.52;;;;;;;14.52;71.75;98607.44;4110698;28;20226;-46
2023/06/06 02:16:01;;;;;;;3.28;1.83;;;;;;;14.52;71.96;98601.94;4110286;28;20238;-45
2023/06/06 02:18:03;;;;;;;3.15;2.03;;;;;;;14.48;72.57;98606.31;4108858;28;20225;-46
2023/06/06 02:20:06;;;;;;;2.25;1.95;;;;;;;14.49;72.66;98607.97;4108014;28;20314;-45
2023/06/06 02:22:08;;;;;;;2.30;2.10;;;;;;;14.37;72.68;98610.13;4105186;28;20207;-45
2023/06/06 02:24:10;;;;;;;2.40;2.20;;;;;;;14.31;73.61;98611.22;4109492;28;20274;-46
2023/06/06 02:26:12;;;;;;;2.25;2.05;;;;;;;14.25;73.44;98615.09;4109889;28;20261;-46
2023/06/06 02:28:14;;;;;;;2.22;1.75;;;;;;;14.26;73.75;98608.47;4107619;28;20215;-45
2023/06/06 02:30:16;;;;;;;2.38;2.17;;;;;;;14.20;73.68;98604.06;4108650;28;20242;-45
2023/06/06 02:32:18;;;;;;;2.15;1.80;;;;;;;14.18;73.85;98611.72;4106289;28;20214;-45
2023/06/06 02:34:21;;;;;;;2.63;2.25;;;;;;;14.25;73.85;98611.50;4107936;28;20266;-44
2023/06/06 02:36:25;;;;;;;2.53;2.33;;;;;;;14.22;73.69;98612.84;4107277;28;20265;-45
2023/06/06 02:38:27;;;;;;;2.00;1.75;;;;;;;14.27;73.72;98610.13;4108364;28;20242;-45
2023/06/06 02:40:28;;;;;;;3.40;2.20;;;;;;;14.23;73.61;98609.00;4108197;28;20233;-45
2023/06/06 02:42:30;;;;;;;2.22;2.03;;;;;;;14.18;73.67;98617.22;4107945;28;20206;-46
2023/06/06 02:44:33;;;;;;;3.08;2.10;;;;;;;14.19;73.65;98613.41;4087718;28;20232;-45
2023/06/06 02:46:34;;;;;;;3.15;1.70;;;;;;;14.19;73.51;98618.91;4103612;28;20694;-46
2023/06/06 02:48:36;;;;;;;2.53;1.90;;;;;;;14.08;74.00;98613.59;4103533;28;20215;-44
2023/06/06 02:50:38;;;;;;;2.20;2.00;;;;;;;14.03;74.09;98614.41;4108962;28;20218;-45
2023/06/06 02:52:40;;;;;;;2.40;1.92;;;;;;;14.01;74.14;98608.34;4106264;28;20215;-46
2023/06/06 02:54:42;;;;;;;2.63;2.30;;;;;;;14.07;74.07;98610.03;4093823;28;20234;-46
2023/06/06 02:56:44;;;;;;;2.20;1.95;;;;;;;14.04;74.14;98610.56;4105526;28;20745;-45
2023/06/06 02:58:47;;;;;;;2.17;1.98;;;;;;;14.03;74.09;98603.41;4106466;28;20218;-46
2023/06/06 03:00:48;;;;;;;2.28;2.08;;;;;;;14.06;73.90;98619.38;4109352;28;20218;-44
2023/06/06 03:02:50;;;;;;;3.60;2.08;;;;;;;14.02;74.63;98612.75;4103633;28;20222;-46
2023/06/06 03:04:52;;;;;;;2.25;2.05;;;;;;;14.03;74.50;98624.59;4104773;28;20218;-45
2023/06/06 03:06:54;;;;;;;2.83;2.05;;;;;;;14.04;74.30;98621.56;4107565;28;20238;-45
2023/06/06 03:08:57;;;;;;;2.88;2.20;;;;;;;14.03;74.44;98625.41;4112408;28;20206;-45
2023/06/06 03:10:59;;;;;;;2.17;1.95;;;;;;;14.05;74.73;98628.75;4113564;28;20219;-45
2023/06/06 03:13:01;;;;;;;2.20;2.10;;;;;;;13.97;75.00;98618.22;4111527;28;20250;-45
2023/06/06 03:15:03;;;;;;;2.47;2.28;;;;;;;14.00;75.00;98628.72;4112433;28;20218;-46
2023/06/06 03:17:06;;;;;;;3.65;2.08;;;;;;;13.97;75.19;98628.44;4111366;28;20237;-45
2023/06/06 03:19:10;;;;;;;2.70;2.50;;;;;;;13.92;75.18;98625.66;4094995;28;20216;-46
2023/06/06 03:21:12;;;;;;;2.28;2.08;;;;;;;13.90;75.33;98631.41;4105217;28;20733;-45
2023/06/06 03:23:13;;;;;;;4.85;2.35;;;;;;;13.89;75.63;98627.00;4106177;28;21064;-45
2023/06/06 03:25:15;;;;;;;2.00;1.75;;;;;;;13.87;75.73;98629.22;4109552;28;20233;-45
2023/06/06 03:27:17;;;;;;;2.70;2.10;;;;;;;13.86;75.77;98630.31;4110429;28;20214;-46
2023/06/06 03:29:19;;;;;;;2.78;2.25;;;;;;;13.89;75.93;98628.94;4108571;28;20242;-46
2023/06/06 03:31:23;;;;;;;2.58;1.83;;;;;;;13.83;75.58;98641.84;4105948;28;20266;-45
2023/06/06 03:33:25;;;;;;;2.58;2.05;;;;;;;13.83;75.91;98641.84;4092244;28;20319;-45
2023/06/06 03:35:29;;;;;;;2.10;1.90;;;;;;;13.82;76.36;98640.19;4111960;28;20211;-45
2023/06/06 03:37:31;;;;;;;3.58;2.30;;;;;;;13.77;76.57;98636.59;4095215;28;20263;-46
2023/06/06 03:39:33;;;;;;;2.88;2.47;;;;;;;13.78;76.33;98639.06;4108468;28;20206;-46
2023/06/06 03:41:35;;;;;;;2.50;2.03;;;;;;;13.76;76.86;98630.25;4101201;28;20215;-46
2023/06/06 03:43:38;;;;;;;2.30;2.08;;;;;;;13.75;77.50;98645.09;4107224;28;20238;-44
2023/06/06 03:45:42;;;;;;;2.38;2.28;;;;;;;13.74;77.67;98637.94;4115176;28;20206;-45
2023/06/06 03:47:44;;;;;;;4.90;2.38;;;;;;;13.71;77.53;98649.47;4109274;28;20571;-46
2023/06/06 03:49:46;;;;;;;2.47;2.28;;;;;;;13.69;78.07;98646.16;4126257;28;20668;-46
2023/06/06 03:51:48;;;;;;;4.32;2.05;;;;;;;13.69;78.01;98642.59;4109371;28;20206;-45
2023/06/06 03:53:50;;;;;;;2.30;2.03;;;;;;;13.70;77.72;98642.31;4108613;28;20313;-45
2023/06/06 03:55:51;;;;;;;3.38;2.40;;;;;;;13.71;77.72;98652.22;4090748;28;20286;-45
2023/06/06 03:57:53;;;;;;;3.25;2.58;;;;;;;13.72;77.84;98644.81;4102668;28;20226;-44
2023/06/06 03:59:55;;;;;;;2.47;2.15;;;;;;;13.71;77.82;98641.22;4121402;28;20548;-45
2023/06/06 04:01:57;;;;;;;3.72;2.35;;;;;;;13.71;78.08;98638.47;4100413;28;20206;-45
2023/06/06 04:03:59;;;;;;;2.42;2.22;;;;;;;13.73;78.42;98647.31;4106895;28;20317;-45
2023/06/06 04:06:08;;;;;;;2.55;2.35;;;;;;;13.72;78.55;98647.56;4104256;28;20296;-45
2023/06/06 04:08:10;;;;;;;2.50;2.33;;;;;;;13.68;78.88;98650.00;4104382;28;20214;-46
2023/06/06 04:10:12;;;;;;;2.60;2.40;;;;;;;13.69;78.82;98645.34;4105562;28;20218;-46
2023/06/06 04:12:13;;;;;;;2.83;2.42;;;;;;;13.69;78.77;98648.91;4107570;28;20211;-45
2023/06/06 04:14:15;;;;;;;2.95;2.33;;;;;;;13.71;79.07;98641.22;4101668;28;20231;-45
2023/06/06 04:16:17;;;;;;;2.97;2.60;;;;;;;13.78;78.90;98650.06;4107982;28;20644;-46
2023/06/06 04:18:19;;;;;;;3.33;3.03;;;;;;;13.79;78.90;98654.47;4107035;28;20605;-46
2023/06/06 04:20:22;;;;;;;2.67;2.47;;;;;;;13.83;78.75;98657.53;4105754;28;20325;-45
2023/06/06 04:22:27;;;;;;;2.92;2.70;;;;;;;13.80;78.37;98658.88;4108106;28;20210;-45
2023/06/06 04:24:29;;;;;;;3.20;3.00;;;;;;;13.80;78.15;98658.88;4105321;28;20226;-46
2023/06/06 04:26:31;;;;;;;2.30;2.03;;;;;;;13.84;78.40;98657.25;4106238;28;20294;-45
2023/06/06 04:28:33;;;;;;;2.63;2.42;;;;;;;13.90;78.59;98653.41;4106587;28;20214;-45
2023/06/06 04:30:34;;;;;;;4.03;2.55;;;;;;;13.90;78.86;98658.91;4107048;28;20210;-45
2023/06/06 04:32:36;;;;;;;3.58;2.78;;;;;;;13.94;78.91;98660.06;4086655;29;20665;-45
2023/06/06 04:34:45;;;;;;;5.53;3.33;;;;;;;13.95;79.38;98650.69;4102120;28;20265;-45
2023/06/06 04:36:46;;;;;;;11.73;2.72;;;;;;;14.02;78.62;98661.44;4106247;28;20218;-47
2023/06/06 04:38:49;;;;;;;13.45;4.40;;;;;;;14.00;78.58;98664.50;4102772;28;20223;-46
2023/06/06 04:40:53;;;;;;;16.42;3.63;;;;;;;14.05;78.07;98660.94;4107754;28;20614;-45
2023/06/06 04:43:23;;;;;;;9.70;3.17;;;;;;;14.08;78.04;98660.38;4105199;28;20241;-45
2023/06/06 04:45:26;;;;;;;32.45;4.88;;;;;;;14.15;78.49;98661.78;4108039;28;20210;-44
2023/06/06 04:47:28;;;;;;;33.28;6.03;;;;;;;14.11;79.34;98655.16;4106857;28;20214;-45
2023/06/06 04:49:39;;;;;;;25.33;6.10;;;;;;;14.14;79.06;98660.16;4108706;28;21170;-47
2023/06/06 04:51:44;;;;;;;51.00;5.75;;;;;;;14.22;79.13;98656.09;4109471;28;20254;-45
2023/06/06 04:53:46;;;;;;;40.17;6.90;;;;;;;14.22;78.60;98656.91;4091697;28;20732;-45
2023/06/06 04:55:49;;;;;;;52.75;6.63;;;;;;;14.24;78.64;98660.19;4103399;28;20215;-46
2023/06/06 04:57:51;;;;;;;54.97;6.68;;;;;;;14.30;78.41;98659.13;4099451;28;20997;-46
2023/06/06 04:59:53;;;;;;;54.83;7.20;;;;;;;14.35;78.30;98656.38;4105641;28;20215;-45
2023/06/06 05:01:58;;;;;;;57.95;7.60;;;;;;;14.42;77.89;98662.47;4101736;28;20211;-45
2023/06/06 05:04:05;;;;;;;30.33;7.20;;;;;;;14.48;77.47;98664.13;4106150;28;20720;-46
2023/06/06 05:06:14;;;;;;;42.88;6.07;;;;;;;14.57;77.42;98665.25;4104934;28;20226;-45
2023/06/06 05:08:16;;;;;;;38.05;8.23;;;;;;;14.62;77.64;98667.22;4108653;28;20214;-45
2023/06/06 05:10:17;;;;;;;24.10;5.85;;;;;;;14.68;77.68;98661.44;4111147;28;20207;-46
2023/06/06 05:12:24;;;;;;;32.78;6.05;;;;;;;14.69;77.40;98657.56;4111576;28;20256;-45
2023/06/06 05:14:26;;;;;;;34.63;4.43;;;;;;;14.75;77.18;98666.66;4109718;28;20233;-45
2023/06/06 05:16:28;;;;;;;25.90;4.78;;;;;;;14.84;76.99;98665.03;4109703;28;20290;-45
2023/06/06 05:18:30;;;;;;;14.52;3.10;;;;;;;14.95;77.87;98656.50;4110629;28;20579;-46
2023/06/06 05:20:33;;;;;;;5.35;3.70;;;;;;;14.95;77.36;98656.50;4110297;28;20207;-45
2023/06/06 05:22:35;;;;;;;9.57;3.33;;;;;;;15.04;76.96;98656.78;4107057;28;20333;-46
2023/06/06 05:24:36;;;;;;;4.60;2.80;;;;;;;15.12;77.20;98662.59;4109565;28;20243;-45
2023/06/06 05:26:38;;;;;;;4.72;3.28;;;;;;;15.23;77.14;98657.91;4103089;28;20707;-44
2023/06/06 05:28:40;;;;;;;9.32;3.53;;;;;;;15.27;77.09;98661.75;4106157;28;20215;-45
2023/06/06 05:30:42;;;;;;;11.77;3.38;;;;;;;15.39;76.85;98665.06;4108370;28;20278;-47
2023/06/06 05:32:43;;;;;;;10.52;4.05;;;;;;;15.54;77.37;98660.38;4108584;28;20203;-45
2023/06/06 05:34:45;;;;;;;11.88;3.05;;;;;;;15.59;78.20;98663.13;4108351;28;20913;-45
2023/06/06 05:36:47;;;;;;;3.42;2.38;;;;;;;15.77;79.27;98665.28;4108183;28;21519;-45
2023/06/06 05:38:49;;;;;;;10.70;2.40;;;;;;;15.98;79.70;98664.13;4107669;28;20266;-45
2023/06/06 05:40:51;;;;;;;7.70;2.83;;;;;;;16.20;77.80;98664.59;4109949;28;20210;-47
2023/06/06 05:42:52;;;;;;;14.65;3.00;;;;;;;16.41;77.59;98666.19;4111751;28;20226;-45
2023/06/06 05:44:54;;;;;;;5.13;2.80;;;;;;;16.63;76.11;98679.63;4109258;28;20208;-45
2023/06/06 05:46:56;;;;;;;8.98;3.13;;;;;;;16.78;75.62;98677.59;4110770;28;20214;-45
2023/06/06 05:48:58;;;;;;;2.95;2.20;;;;;;;16.91;75.95;98682.50;4106480;28;20677;-46
2023/06/06 05:51:00;;;;;;;4.25;2.67;;;;;;;17.07;74.37;98681.25;4107291;28;20227;-45
2023/06/06 05:53:02;;;;;;;2.95;2.72;;;;;;;17.18;74.78;98683.66;4121363;28;20214;-48
2023/06/06 05:55:05;;;;;;;3.95;2.08;;;;;;;17.24;74.63;98693.56;4108679;28;20264;-46
2023/06/06 05:57:21;;;;;;;3.10;2.20;;;;;;;17.40;73.10;98697.06;4105750;28;20945;-44
2023/06/06 05:59:23;;;;;;;4.47;2.15;;;;;;;17.50;73.02;98703.34;4107276;28;20211;-46
2023/06/06 06:01:24;;;;;;;2.83;2.17;;;;;;;17.54;73.10;98698.91;4088861;28;20212;-45
2023/06/06 06:03:26;;;;;;;3.55;2.13;;;;;;;17.63;73.91;98682.47;4106870;28;20971;-46
2023/06/06 06:05:29;;;;;;;4.57;2.38;;;;;;;17.67;75.66;98686.31;4123435;28;20337;-45
2023/06/06 06:07:31;;;;;;;2.92;2.58;;;;;;;17.80;74.59;98691.16;4106219;28;20252;-46
2023/06/06 06:09:33;;;;;;;3.15;2.42;;;;;;;17.85;73.91;98682.81;4093807;28;20712;-46
2023/06/06 06:11:35;;;;;;;4.60;2.63;;;;;;;18.01;75.04;98687.06;4109029;28;20261;-46
2023/06/06 06:13:36;;;;;;;2.75;2.40;;;;;;;18.16;73.05;98689.66;4124545;28;20226;-45
2023/06/06 06:15:38;;;;;;;3.03;2.75;;;;;;;18.35;71.86;98687.78;4106610;28;20206;-46
2023/06/06 06:17:40;;;;;;;2.58;2.38;;;;;;;18.45;71.94;98679.38;4109438;28;20234;-45
2023/06/06 06:19:42;;;;;;;3.75;2.40;;;;;;;18.66;71.77;98677.97;4108747;28;20215;-45
2023/06/06 06:21:43;;;;;;;2.50;2.30;;;;;;;18.67;72.71;98679.63;4088290;28;20215;-45
2023/06/06 06:23:45;;;;;;;4.75;2.15;;;;;;;18.84;71.71;98682.72;4105514;28;20234;-45
2023/06/06 06:25:47;;;;;;;7.30;2.50;;;;;;;18.93;71.14;98683.69;4108735;28;20286;-45
2023/06/06 06:27:49;;;;;;;6.60;2.92;;;;;;;19.02;70.75;98690.19;4105681;28;20269;-46
2023/06/06 06:29:51;;;;;;;11.30;3.03;;;;;;;19.20;70.80;98679.13;4110154;28;20203;-47
2023/06/06 06:31:52;;;;;;;3.67;2.47;;;;;;;19.28;70.22;98680.38;4127922;28;20256;-45
2023/06/06 06:33:57;;;;;;;7.35;2.63;;;;;;;19.43;69.80;98688.47;4109442;28;20260;-45
2023/06/06 06:35:59;;;;;;;5.05;2.63;;;;;;;19.54;70.44;98684.41;4108903;28;20215;-45
2023/06/06 06:38:01;;;;;;;4.45;2.90;;;;;;;19.74;69.11;98689.59;4108576;28;20769;-46
2023/06/06 06:40:09;;;;;;;5.57;2.72;;;;;;;19.84;69.27;98683.88;4123677;28;20688;-46
2023/06/06 06:42:11;;;;;;;3.03;2.72;;;;;;;19.88;68.78;98690.44;4107986;28;20207;-45
2023/06/06 06:44:13;;;;;;;3.92;2.22;;;;;;;20.13;68.74;98684.44;4093149;28;20245;-45
2023/06/06 06:46:15;;;;;;;4.85;2.20;;;;;;;20.15;69.05;98684.94;4113206;28;20214;-45
2023/06/06 06:48:17;;;;;;;3.90;2.58;;;;;;;20.26;68.27;98687.22;4111490;28;20681;-45
2023/06/06 06:50:20;;;;;;;5.13;3.03;;;;;;;20.45;67.39;98689.91;4111755;28;20213;-45
2023/06/06 06:52:22;;;;;;;2.65;2.45;;;;;;;20.08;67.34;98684.53;4111194;28;20217;-45
2023/06/06 06:54:26;;;;;;;4.70;2.00;;;;;;;20.05;66.68;98696.25;4094212;28;20690;-45
2023/06/06 06:56:27;;;;;;;4.72;2.65;;;;;;;20.18;66.13;98689.91;4110951;28;20245;-45
2023/06/06 06:58:33;;;;;;;3.28;2.97;;;;;;;20.09;64.66;98691.75;4110961;28;20288;-45
2023/06/06 07:00:36;;;;;;;5.07;2.30;;;;;;;20.15;64.09;98691.34;4110731;28;20233;-44
2023/06/06 07:02:47;;;;;;;3.70;2.85;;;;;;;20.28;65.40;98689.69;4109161;28;20222;-44
2023/06/06 07:04:49;;;;;;;2.67;2.47;;;;;;;20.33;64.27;98697.94;4119635;28;20239;-45
2023/06/06 07:06:51;;;;;;;2.67;2.47;;;;;;;20.44;65.71;98694.63;4112458;28;20235;-46
2023/06/06 07:08:53;;;;;;;4.13;2.67;;;;;;;20.89;64.56;98696.47;4107075;28;20217;-46
2023/06/06 07:10:55;;;;;;;3.65;2.08;;;;;;;21.07;63.53;98697.47;4113336;28;20210;-46
2023/06/06 07:12:56;;;;;;;2.53;2.33;;;;;;;21.08;64.02;98690.75;4109220;28;20321;-44
2023/06/06 07:14:58;;;;;;;4.20;2.47;;;;;;;21.39;62.74;98700.03;4109982;28;20850;-44
2023/06/06 07:17:00;;;;;;;4.18;2.17;;;;;;;21.45;61.89;98687.66;4104092;28;20316;-44
2023/06/06 07:19:02;;;;;;;8.45;1.70;;;;;;;21.45;62.33;98698.78;4109410;28;20726;-45
2023/06/06 07:21:04;;;;;;;2.38;2.17;;;;;;;21.34;61.46;98694.59;4107029;28;20223;-44
2023/06/06 07:23:07;;;;;;;4.82;2.35;;;;;;;21.20;60.17;98688.25;4106677;28;20225;-45
2023/06/06 07:25:14;;;;;;;3.00;2.53;;;;;;;21.41;62.00;98692.19;4110783;28;20245;-45
2023/06/06 07:27:18;;;;;;;2.38;2.17;;;;;;;21.50;61.00;98695.88;4105567;28;20548;-46
2023/06/06 07:29:24;;;;;;;3.42;3.13;;;;;;;21.14;59.94;98695.91;4124462;28;20209;-45
2023/06/06 07:31:26;;;;;;;2.80;2.40;;;;;;;21.55;60.63;98692.94;4112287;28;20650;-45
2023/06/06 07:33:28;;;;;;;2.47;2.00;;;;;;;21.52;59.22;98704.75;4111454;28;20321;-44
2023/06/06 07:35:32;;;;;;;2.63;2.42;;;;;;;21.70;60.28;98700.97;4109065;28;20210;-46
2023/06/06 07:37:36;;;;;;;4.28;2.53;;;;;;;22.00;58.68;98700.16;4110933;28;20236;-45
2023/06/06 07:39:37;;;;;;;2.28;2.10;;;;;;;22.00;58.02;98689.84;4111351;28;20234;-46
2023/06/06 07:41:39;;;;;;;6.13;2.40;;;;;;;21.92;58.86;98690.59;4108896;28;20214;-44
2023/06/06 07:43:41;;;;;;;2.85;2.50;;;;;;;21.76;57.12;98696.91;4110545;28;20457;-44
2023/06/06 07:45:46;;;;;;;2.97;2.70;;;;;;;21.67;57.72;98701.59;4093696;28;20215;-45
2023/06/06 07:47:48;;;;;;;3.22;2.47;;;;;;;22.21;59.47;98695.69;4107898;28;20210;-44
2023/06/06 07:49:50;;;;;;;8.40;2.85;;;;;;;22.16;56.78;98693.03;4125534;28;20205;-45
2023/06/06 07:51:52;;;;;;;4.75;2.55;;;;;;;22.51;55.54;98694.88;4102558;28;20207;-45
2023/06/06 07:54:00;;;;;;;2.58;2.33;;;;;;;22.00;56.73;98691.81;4108191;28;20231;-44
2023/06/06 07:56:03;;;;;;;2.55;2.08;;;;;;;22.04;56.05;98687.25;4110034;28;20214;-45
2023/06/06 07:58:10;;;;;;;2.92;2.28;;;;;;;22.18;55.42;98699.94;4108418;28;20261;-45
2023/06/06 08:00:13;;;;;;;4.55;2.30;;;;;;;22.40;56.19;98687.91;4116740;28;20210;-45
2023/06/06 08:02:14;;;;;;;3.85;3.45;;;;;;;22.59;54.70;98691.28;4103836;28;20213;-44
2023/06/06 08:04:16;;;;;;;5.13;3.35;;;;;;;22.90;54.74;98689.22;4119963;28;20256;-45
2023/06/06 08:06:18;;;;;;;5.75;2.22;;;;;;;22.86;52.32;98682.66;4106388;28;20265;-45
2023/06/06 08:08:26;;;;;;;5.38;2.72;;;;;;;23.06;53.23;98682.84;4100768;28;20234;-45
2023/06/06 08:10:28;;;;;;;8.63;2.97;;;;;;;23.24;52.59;98681.72;4103708;28;20256;-44
2023/06/06 08:12:29;;;;;;;3.35;2.17;;;;;;;23.33;51.48;98690.13;4103483;28;20253;-44
2023/06/06 08:14:34;;;;;;;3.20;2.67;;;;;;;23.45;51.35;98684.69;4090308;29;20548;-45
2023/06/06 08:16:37;;;;;;;4.03;1.90;;;;;;;23.56;51.71;98688.81;4103702;28;20654;-44
2023/06/06 08:18:39;;;;;;;2.42;2.22;;;;;;;23.04;51.47;98687.91;4103765;28;20234;-45
2023/06/06 08:20:41;;;;;;;2.60;2.30;;;;;;;23.26;52.28;98684.19;4103307;28;20216;-45
2023/06/06 08:22:50;;;;;;;3.05;2.40;;;;;;;23.28;50.99;98687.47;4102470;28;20210;-43
2023/06/06 08:24:52;;;;;;;4.47;4.13;;;;;;;23.32;50.20;98694.06;4101083;28;20275;-45
2023/06/06 08:26:53;;;;;;;3.17;2.88;;;;;;;23.36;50.40;98678.31;4098921;28;20210;-45
2023/06/06 08:28:55;;;;;;;2.88;2.50;;;;;;;23.29;50.05;98677.94;4098123;28;20210;-45
2023/06/06 08:30:57;;;;;;;2.67;2.17;;;;;;;23.59;50.18;98682.53;4107752;28;20205;-45
2023/06/06 08:32:59;;;;;;;2.13;1.92;;;;;;;23.21;50.22;98681.56;4101206;28;20260;-45
2023/06/06 08:35:05;;;;;;;2.58;2.22;;;;;;;23.52;49.76;98676.63;4106471;28;20237;-46
2023/06/06 08:37:07;;;;;;;2.05;1.85;;;;;;;23.55;48.10;98670.38;4105270;28;20234;-45
2023/06/06 08:39:08;;;;;;;2.05;1.88;;;;;;;23.84;48.27;98674.94;4106194;28;20724;-44
2023/06/06 08:41:11;;;;;;;2.85;2.25;;;;;;;24.22;49.43;98681.44;4100890;28;20249;-44
2023/06/06 08:43:14;;;;;;;2.53;1.95;;;;;;;24.01;48.70;98674.13;4103173;28;20357;-45
2023/06/06 08:45:22;;;;;;;2.35;2.15;;;;;;;24.43;49.42;98673.97;4085823;28;20269;-45
2023/06/06 08:47:25;;;;;;;2.38;2.17;;;;;;;25.05;49.31;98672.13;4103568;28;20209;-45
2023/06/06 08:49:28;;;;;;;1.70;1.55;;;;;;;24.81;48.34;98683.16;4105836;28;20217;-45
2023/06/06 08:51:30;;;;;;;2.28;2.05;;;;;;;25.08;49.01;98679.88;4107671;28;20266;-44
2023/06/06 08:53:33;;;;;;;2.40;2.20;;;;;;;24.91;48.41;98671.56;4109810;28;20353;-45
2023/06/06 08:55:35;;;;;;;2.13;2.03;;;;;;;25.23;47.64;98678.47;4105160;28;20317;-44
2023/06/06 08:57:43;;;;;;;2.65;2.00;;;;;;;25.35;48.18;98675.72;4082588;28;21383;-45
2023/06/06 08:59:49;;;;;;;2.38;2.08;;;;;;;25.77;47.79;98689.34;4115928;28;20213;-44
2023/06/06 09:01:51;;;;;;;2.38;1.65;;;;;;;25.32;47.09;98674.44;4099194;28;20263;-45
2023/06/06 09:03:56;;;;;;;2.15;1.95;;;;;;;25.74;47.31;98686.44;4104220;28;20236;-44
2023/06/06 09:06:00;;;;;;;2.28;2.08;;;;;;;25.49;45.40;98677.09;4107096;28;20206;-44
2023/06/06 09:08:02;;;;;;;3.42;2.00;;;;;;;25.68;46.17;98685.81;4108455;28;20218;-44
2023/06/06 09:10:05;;;;;;;2.42;1.88;;;;;;;25.68;46.61;98685.81;4104942;28;20206;-44
2023/06/06 09:12:07;;;;;;;2.80;2.03;;;;;;;25.20;46.43;98688.31;4124397;28;20260;-46
2023/06/06 09:14:09;;;;;;;3.35;2.55;;;;;;;25.75;47.45;98686.09;4128312;28;20249;-46
2023/06/06 09:16:12;;;;;;;2.67;2.42;;;;;;;25.33;46.03;98680.88;4107587;28;20218;-46
2023/06/06 09:18:15;;;;;;;2.58;2.38;;;;;;;25.50;46.47;98684.34;4106966;28;20296;-47
2023/06/06 09:20:17;;;;;;;4.57;2.20;;;;;;;26.03;46.12;98692.75;4111583;28;20206;-47
2023/06/06 09:22:19;;;;;;;2.92;2.50;;;;;;;25.55;45.25;98688.91;4096894;28;20211;-46
2023/06/06 09:24:21;;;;;;;2.28;1.83;;;;;;;25.96;45.42;98692.50;4111923;28;20260;-47
2023/06/06 09:26:23;;;;;;;3.10;2.28;;;;;;;25.63;44.34;98694.44;4110623;28;20294;-47
2023/06/06 09:28:38;;;;;;;2.20;2.00;;;;;;;25.32;44.53;98688.44;4113759;28;20247;-46
2023/06/06 09:30:40;;;;;;;4.82;2.60;;;;;;;25.65;45.75;98686.50;4111259;28;20206;-46
2023/06/06 09:32:42;;;;;;;3.55;2.17;;;;;;;25.91;44.37;98683.47;4126645;28;20217;-47
2023/06/06 09:34:44;;;;;;;2.92;2.30;;;;;;;26.28;43.58;98676.78;4126219;28;20210;-48
2023/06/06 09:36:47;;;;;;;2.30;1.98;;;;;;;25.95;43.08;98679.66;4120107;28;20260;-50
2023/06/06 09:38:53;;;;;;;10.32;2.60;;;;;;;25.92;44.27;98685.94;4106526;28;20237;-48